sensor_id;sensor_type;location;lat;lon;timestamp;pressure;altitude;pressure_sealevel;temperature;humidity
71057;BME280;58380;48.312;9.246;2023-09-19T05:07:24;93480.41;;;12.39;100.00
71057;BME280;58380;48.312;9.246;2023-09-19T05:09:51;93492.56;;;12.45;100.00
71057;BME280;58380;48.312;9.246;2023-09-19T05:12:16;93485.47;;;12.30;100.00
71057;BME280;58380;48.312;9.246;2023-09-19T05:14:44;93508.41;;;12.50;100.00
71057;BME280;58380;48.312;9.246;2023-09-19T05:17:10;93508.94;;;12.52;100.00
71057;BME280;58380;48.312;9.246;2023-09-19T05:19:35;93515.81;;;12.48;100.00
71057;BME280;58380;48.312;9.246;2023-09-19T05:22:02;93477.56;;;12.25;100.00
71057;BME280;58380;48.312;9.246;2023-09-19T05:24:29;93427.44;;;11.84;100.00
71057;BME280;58380;48.312;9.246;2023-09-19T05:26:55;93496.59;;;12.27;100.00
71057;BME280;58380;48.312;9.246;2023-09-19T05:29:22;93520.69;;;12.30;100.00
71057;BME280;58380;48.312;9.246;2023-09-19T05:31:47;93513.06;;;12.19;100.00
71057;BME280;58380;48.312;9.246;2023-09-19T05:34:14;93519.09;;;12.24;100.00
71057;BME280;58380;48.312;9.246;2023-09-19T05:36:40;93517.00;;;12.26;100.00
71057;BME280;58380;48.312;9.246;2023-09-19T05:39:05;93529.94;;;12.33;100.00
71057;BME280;58380;48.312;9.246;2023-09-19T05:41:34;93523.88;;;12.22;100.00
71057;BME280;58380;48.312;9.246;2023-09-19T05:44:01;93533.91;;;12.25;100.00
71057;BME280;58380;48.312;9.246;2023-09-19T05:46:29;93530.22;;;12.26;100.00
71057;BME280;58380;48.312;9.246;2023-09-19T05:48:55;93510.44;;;12.08;100.00
71057;BME280;58380;48.312;9.246;2023-09-19T05:51:23;93505.13;;;12.19;100.00
71057;BME280;58380;48.312;9.246;2023-09-19T05:53:50;93484.03;;;11.98;100.00
71057;BME280;58380;48.312;9.246;2023-09-19T05:56:15;93497.47;;;12.07;100.00
71057;BME280;58380;48.312;9.246;2023-09-19T05:58:44;93538.16;;;12.32;100.00
71057;BME280;58380;48.312;9.246;2023-09-19T06:01:10;93544.16;;;12.47;100.00
71057;BME280;58380;48.312;9.246;2023-09-19T06:03:35;93548.06;;;12.65;100.00
71057;BME280;58380;48.312;9.246;2023-09-19T06:06:03;93524.16;;;12.81;100.00
71057;BME280;58380;48.312;9.246;2023-09-19T06:08:31;93555.72;;;13.16;100.00
71057;BME280;58380;48.312;9.246;2023-09-19T06:10:58;93527.66;;;13.15;100.00
71057;BME280;58380;48.312;9.246;2023-09-19T06:13:24;93541.31;;;13.38;100.00
71057;BME280;58380;48.312;9.246;2023-09-19T06:15:51;93555.63;;;13.37;100.00
71057;BME280;58380;48.312;9.246;2023-09-19T06:18:17;93539.84;;;13.16;100.00
71057;BME280;58380;48.312;9.246;2023-09-19T06:20:48;93564.91;;;13.34;100.00
71057;BME280;58380;48.312;9.246;2023-09-19T06:23:16;93560.72;;;13.23;100.00
71057;BME280;58380;48.312;9.246;2023-09-19T06:25:42;93580.53;;;13.41;100.00
71057;BME280;58380;48.312;9.246;2023-09-19T06:28:08;93579.22;;;13.38;100.00
71057;BME280;58380;48.312;9.246;2023-09-19T06:30:37;93571.22;;;13.44;100.00
71057;BME280;58380;48.312;9.246;2023-09-19T06:33:07;93558.28;;;13.37;100.00
71057;BME280;58380;48.312;9.246;2023-09-19T06:35:33;93571.41;;;13.52;100.00
71057;BME280;58380;48.312;9.246;2023-09-19T06:38:02;93588.88;;;13.58;100.00
71057;BME280;58380;48.312;9.246;2023-09-19T06:40:29;93592.50;;;13.73;100.00
71057;BME280;58380;48.312;9.246;2023-09-19T06:42:56;93577.16;;;13.65;100.00
71057;BME280;58380;48.312;9.246;2023-09-19T06:45:21;93590.03;;;13.81;100.00
71057;BME280;58380;48.312;9.246;2023-09-19T06:47:48;93600.38;;;13.83;100.00
71057;BME280;58380;48.312;9.246;2023-09-19T06:50:19;93579.72;;;13.75;100.00
71057;BME280;58380;48.312;9.246;2023-09-19T06:52:48;93580.38;;;13.62;100.00
71057;BME280;58380;48.312;9.246;2023-09-19T06:55:19;93600.47;;;13.68;100.00
71057;BME280;58380;48.312;9.246;2023-09-19T06:57:48;93604.19;;;13.67;100.00
71057;BME280;58380;48.312;9.246;2023-09-19T07:00:16;93565.44;;;13.36;100.00
71057;BME280;58380;48.312;9.246;2023-09-19T07:02:57;93604.78;;;13.58;100.00
71057;BME280;58380;48.312;9.246;2023-09-19T07:05:27;93610.56;;;13.66;100.00
71057;BME280;58380;48.312;9.246;2023-09-19T07:07:53;93612.13;;;13.72;100.00
71057;BME280;58380;48.312;9.246;2023-09-19T07:10:24;93623.19;;;13.79;100.00
71057;BME280;58380;48.312;9.246;2023-09-19T07:12:58;93612.31;;;13.80;100.00
71057;BME280;58380;48.312;9.246;2023-09-19T07:15:34;93597.78;;;13.73;100.00
71057;BME280;58380;48.312;9.246;2023-09-19T07:18:16;93599.38;;;13.74;100.00
71057;BME280;58380;48.312;9.246;2023-09-19T07:20:43;93623.56;;;14.01;100.00
71057;BME280;58380;48.312;9.246;2023-09-19T07:23:19;93604.44;;;13.99;100.00
71057;BME280;58380;48.312;9.246;2023-09-19T07:25:47;93594.63;;;14.00;100.00
71057;BME280;58380;48.312;9.246;2023-09-19T07:28:13;93622.78;;;14.25;100.00
71057;BME280;58380;48.312;9.246;2023-09-19T07:30:39;93628.81;;;14.36;100.00
71057;BME280;58380;48.312;9.246;2023-09-19T07:33:07;93618.75;;;14.33;100.00
71057;BME280;58380;48.312;9.246;2023-09-19T07:35:36;93594.00;;;14.13;100.00
71057;BME280;58380;48.312;9.246;2023-09-19T07:38:05;93618.75;;;14.33;100.00
71057;BME280;58380;48.312;9.246;2023-09-19T07:40:31;93627.69;;;14.42;100.00
71057;BME280;58380;48.312;9.246;2023-09-19T07:42:56;93636.22;;;14.39;100.00
71057;BME280;58380;48.312;9.246;2023-09-19T07:45:22;93618.97;;;14.36;100.00
71057;BME280;58380;48.312;9.246;2023-09-19T07:47:49;93591.59;;;14.12;100.00
71057;BME280;58380;48.312;9.246;2023-09-19T07:50:19;93640.69;;;14.43;100.00
71057;BME280;58380;48.312;9.246;2023-09-19T07:52:48;93624.34;;;14.31;100.00
71057;BME280;58380;48.312;9.246;2023-09-19T07:55:19;93656.38;;;14.40;100.00
71057;BME280;58380;48.312;9.246;2023-09-19T07:57:50;93609.66;;;14.10;100.00
71057;BME280;58380;48.312;9.246;2023-09-19T08:00:15;93640.78;;;14.33;100.00
71057;BME280;58380;48.312;9.246;2023-09-19T08:02:41;93630.34;;;14.42;100.00
71057;BME280;58380;48.312;9.246;2023-09-19T08:05:09;93636.22;;;14.39;100.00
71057;BME280;58380;48.312;9.246;2023-09-19T08:07:40;93667.19;;;14.49;100.00
71057;BME280;58380;48.312;9.246;2023-09-19T08:10:09;93626.94;;;14.07;100.00
71057;BME280;58380;48.312;9.246;2023-09-19T08:12:39;93648.69;;;14.09;100.00
71057;BME280;58380;48.312;9.246;2023-09-19T08:15:19;93682.50;;;13.98;100.00
71057;BME280;58380;48.312;9.246;2023-09-19T08:17:45;93687.66;;;13.79;100.00
71057;BME280;58380;48.312;9.246;2023-09-19T08:20:12;93679.34;;;13.52;100.00
71057;BME280;58380;48.312;9.246;2023-09-19T08:22:51;93687.88;;;13.44;100.00
71057;BME280;58380;48.312;9.246;2023-09-19T08:25:23;93703.00;;;13.43;100.00
71057;BME280;58380;48.312;9.246;2023-09-19T08:27:51;93680.03;;;13.28;100.00
71057;BME280;58380;48.312;9.246;2023-09-19T08:30:18;93686.56;;;13.41;100.00
71057;BME280;58380;48.312;9.246;2023-09-19T08:32:56;93661.47;;;13.23;100.00
71057;BME280;58380;48.312;9.246;2023-09-19T08:35:23;93679.50;;;13.21;100.00
71057;BME280;58380;48.312;9.246;2023-09-19T08:37:49;93676.06;;;13.21;100.00
71057;BME280;58380;48.312;9.246;2023-09-19T08:40:14;93680.09;;;12.98;100.00
71057;BME280;58380;48.312;9.246;2023-09-19T08:42:53;93697.56;;;13.09;100.00
71057;BME280;58380;48.312;9.246;2023-09-19T08:45:24;93724.53;;;13.21;100.00
71057;BME280;58380;48.312;9.246;2023-09-19T08:50:33;93711.84;;;13.08;100.00
71057;BME280;58380;48.312;9.246;2023-09-19T08:53:10;93714.00;;;13.11;100.00
71057;BME280;58380;48.312;9.246;2023-09-19T08:55:41;93721.91;;;13.21;100.00
71057;BME280;58380;48.312;9.246;2023-09-19T08:58:10;93704.16;;;13.16;100.00
71057;BME280;58380;48.312;9.246;2023-09-19T09:00:39;93714.50;;;13.13;100.00
71057;BME280;58380;48.312;9.246;2023-09-19T09:03:09;93672.97;;;12.98;100.00
71057;BME280;58380;48.312;9.246;2023-09-19T09:05:36;93701.47;;;13.27;100.00
71057;BME280;58380;48.312;9.246;2023-09-19T09:08:02;93699.88;;;13.31;100.00
71057;BME280;58380;48.312;9.246;2023-09-19T09:10:31;93696.41;;;13.41;100.00
71057;BME280;58380;48.312;9.246;2023-09-19T09:12:58;93705.75;;;13.72;100.00
71057;BME280;58380;48.312;9.246;2023-09-19T09:15:24;93715.75;;;13.86;100.00
71057;BME280;58380;48.312;9.246;2023-09-19T09:17:50;93707.13;;;14.04;100.00
71057;BME280;58380;48.312;9.246;2023-09-19T09:20:18;93713.97;;;14.15;100.00
71057;BME280;58380;48.312;9.246;2023-09-19T09:22:51;93685.28;;;14.12;100.00
71057;BME280;58380;48.312;9.246;2023-09-19T09:25:19;93689.50;;;14.18;100.00
71057;BME280;58380;48.312;9.246;2023-09-19T09:27:59;93675.00;;;14.35;100.00
71057;BME280;58380;48.312;9.246;2023-09-19T09:30:34;93712.97;;;14.70;100.00
71057;BME280;58380;48.312;9.246;2023-09-19T09:33:10;93692.97;;;14.77;100.00
71057;BME280;58380;48.312;9.246;2023-09-19T09:35:37;93684.97;;;14.77;100.00
71057;BME280;58380;48.312;9.246;2023-09-19T09:38:18;93679.63;;;14.82;94.41
71057;BME280;58380;48.312;9.246;2023-09-19T09:40:53;93693.31;;;14.95;94.84
71057;BME280;58380;48.312;9.246;2023-09-19T09:43:28;93710.88;;;15.15;92.69
71057;BME280;58380;48.312;9.246;2023-09-19T09:46:16;93724.31;;;15.28;94.32
71057;BME280;58380;48.312;9.246;2023-09-19T09:48:59;93718.28;;;15.42;97.32
71057;BME280;58380;48.312;9.246;2023-09-19T09:52:02;93688.31;;;15.36;91.75
71057;BME280;58380;48.312;9.246;2023-09-19T09:55:01;93709.03;;;15.58;95.32
71057;BME280;58380;48.312;9.246;2023-09-19T09:57:33;93703.03;;;15.71;94.32
71057;BME280;58380;48.312;9.246;2023-09-19T10:00:00;93708.28;;;15.77;90.02
71057;BME280;58380;48.312;9.246;2023-09-19T10:02:39;93693.69;;;15.74;88.23
71057;BME280;58380;48.312;9.246;2023-09-19T10:05:19;93698.41;;;15.77;87.91
71057;BME280;58380;48.312;9.246;2023-09-19T10:07:49;93671.88;;;15.72;90.27
71057;BME280;58380;48.312;9.246;2023-09-19T10:10:33;93697.84;;;15.99;88.83
71057;BME280;58380;48.312;9.246;2023-09-19T10:13:29;93686.25;;;16.09;87.10
71057;BME280;58380;48.312;9.246;2023-09-19T10:15:58;93618.91;;;15.89;87.32
71057;BME280;58380;48.312;9.246;2023-09-19T10:18:36;93689.50;;;16.38;82.76
71057;BME280;58380;48.312;9.246;2023-09-19T10:21:04;93666.28;;;16.25;81.92
71057;BME280;58380;48.312;9.246;2023-09-19T10:23:32;93680.06;;;16.13;78.49
71057;BME280;58380;48.312;9.246;2023-09-19T10:26:01;93647.69;;;16.06;82.03
71057;BME280;58380;48.312;9.246;2023-09-19T10:28:28;93628.94;;;15.98;83.86
71057;BME280;58380;48.312;9.246;2023-09-19T10:30:59;93681.53;;;16.52;81.88
71057;BME280;58380;48.312;9.246;2023-09-19T10:33:34;93695.25;;;16.59;80.67
71057;BME280;58380;48.312;9.246;2023-09-19T10:36:04;93651.88;;;16.26;80.66
71057;BME280;58380;48.312;9.246;2023-09-19T10:38:31;93653.59;;;16.50;77.54
71057;BME280;58380;48.312;9.246;2023-09-19T10:41:01;93639.25;;;16.32;nan
71057;BME280;58380;48.312;9.246;2023-09-19T10:43:32;93695.56;;;16.91;80.71
71057;BME280;58380;48.312;9.246;2023-09-19T10:46:07;93689.53;;;17.13;80.30
71057;BME280;58380;48.312;9.246;2023-09-19T10:48:39;93683.22;;;17.22;78.14
71057;BME280;58380;48.312;9.246;2023-09-19T10:51:22;93660.50;;;17.25;78.70
71057;BME280;58380;48.312;9.246;2023-09-19T10:54:05;93678.66;;;17.23;79.72
71057;BME280;58380;48.312;9.246;2023-09-19T10:56:41;93678.91;;;17.49;75.44
71057;BME280;58380;48.312;9.246;2023-09-19T10:59:14;93687.81;;;17.44;70.59
71057;BME280;58380;48.312;9.246;2023-09-19T11:01:45;93686.53;;;17.56;74.14
71057;BME280;58380;48.312;9.246;2023-09-19T11:04:38;93686.59;;;17.64;73.33
71057;BME280;58380;48.312;9.246;2023-09-19T11:07:11;93677.47;;;17.79;71.56
71057;BME280;58380;48.312;9.246;2023-09-19T11:09:53;93695.28;;;17.84;67.68
71057;BME280;58380;48.312;9.246;2023-09-19T11:14:51;93669.03;;;17.50;66.58
71057;BME280;58380;48.312;9.246;2023-09-19T11:25:41;93609.00;;;16.69;68.70
71057;BME280;58380;48.312;9.246;2023-09-19T11:30:49;93696.44;;;16.86;66.84
71057;BME280;58380;48.312;9.246;2023-09-19T11:36:17;93581.38;;;16.51;69.48
71057;BME280;58380;48.312;9.246;2023-09-19T12:22:45;93597.50;;;18.19;56.40
71057;BME280;58380;48.312;9.246;2023-09-19T12:25:41;93602.25;;;18.22;57.39
71057;BME280;58380;48.312;9.246;2023-09-19T12:28:43;93657.34;;;18.41;57.37
71057;BME280;58380;48.312;9.246;2023-09-19T12:33:58;93657.25;;;18.23;57.17
71057;BME280;58380;48.312;9.246;2023-09-19T12:36:26;93553.78;;;17.25;56.44
71057;BME280;58380;48.312;9.246;2023-09-19T12:39:04;93573.09;;;17.67;57.41
71057;BME280;58380;48.312;9.246;2023-09-19T12:49:24;93520.25;;;17.78;57.52
71057;BME280;58380;48.312;9.246;2023-09-19T12:51:54;93564.50;;;18.15;55.82
71057;BME280;58380;48.312;9.246;2023-09-19T12:55:06;93536.72;;;17.94;55.38
71057;BME280;58380;48.312;9.246;2023-09-19T13:07:53;93627.44;;;18.30;54.89
71057;BME280;58380;48.312;9.246;2023-09-19T13:14:24;93615.84;;;18.74;53.93
71057;BME280;58380;48.312;9.246;2023-09-19T13:17:09;93629.00;;;18.93;54.52
71057;BME280;58380;48.312;9.246;2023-09-19T13:20:04;93565.16;;;18.61;55.23
71057;BME280;58380;48.312;9.246;2023-09-19T13:22:43;93607.13;;;18.83;53.76
71057;BME280;58380;48.312;9.246;2023-09-19T13:25:25;93558.84;;;18.57;55.45
71057;BME280;58380;48.312;9.246;2023-09-19T13:28:42;93511.00;;;18.38;55.18
71057;BME280;58380;48.312;9.246;2023-09-19T13:41:31;93527.53;;;19.14;54.20
71057;BME280;58380;48.312;9.246;2023-09-19T13:43:57;93596.22;;;19.54;53.43
71057;BME280;58380;48.312;9.246;2023-09-19T13:46:23;93599.97;;;19.27;53.13
71057;BME280;58380;48.312;9.246;2023-09-19T13:48:51;93542.28;;;18.86;54.89
71057;BME280;58380;48.312;9.246;2023-09-19T13:51:20;93516.81;;;18.88;57.49
71057;BME280;58380;48.312;9.246;2023-09-19T13:53:50;93506.28;;;18.92;53.68
71057;BME280;58380;48.312;9.246;2023-09-19T13:56:16;93565.69;;;19.37;53.50
71057;BME280;58380;48.312;9.246;2023-09-19T13:58:42;93571.66;;;19.60;52.53
71057;BME280;58380;48.312;9.246;2023-09-19T14:01:07;93580.50;;;19.87;54.38
71057;BME280;58380;48.312;9.246;2023-09-19T14:03:41;93574.50;;;19.81;52.85
71057;BME280;58380;48.312;9.246;2023-09-19T14:06:11;93569.47;;;19.71;52.34
71057;BME280;58380;48.312;9.246;2023-09-19T14:08:37;93576.56;;;19.93;52.43
71057;BME280;58380;48.312;9.246;2023-09-19T14:11:07;93522.69;;;19.34;51.53
71057;BME280;58380;48.312;9.246;2023-09-19T14:13:34;93577.47;;;19.54;54.09
71057;BME280;58380;48.312;9.246;2023-09-19T14:16:04;93547.88;;;19.33;52.27
71057;BME280;58380;48.312;9.246;2023-09-19T14:18:30;93576.06;;;19.56;52.08
71057;BME280;58380;48.312;9.246;2023-09-19T14:20:56;93567.09;;;19.61;55.62
71057;BME280;58380;48.312;9.246;2023-09-19T14:23:22;93489.00;;;19.33;51.18
71057;BME280;58380;48.312;9.246;2023-09-19T14:28:23;93513.38;;;19.66;50.26
71057;BME280;58380;48.312;9.246;2023-09-19T14:30:50;93577.00;;;20.13;50.89
71057;BME280;58380;48.312;9.246;2023-09-19T14:35:56;93513.72;;;19.73;50.51
71057;BME280;58380;48.312;9.246;2023-09-19T14:38:22;93544.72;;;20.00;51.80
71057;BME280;58380;48.312;9.246;2023-09-19T14:40:47;93465.97;;;19.49;50.47
71057;BME280;58380;48.312;9.246;2023-09-19T14:43:15;93481.75;;;19.33;49.19
71057;BME280;58380;48.312;9.246;2023-09-19T14:45:41;93484.91;;;19.35;50.54
71057;BME280;58380;48.312;9.246;2023-09-19T14:48:06;93558.75;;;19.89;51.17
71057;BME280;58380;48.312;9.246;2023-09-19T14:50:32;93501.91;;;19.31;51.14
71057;BME280;58380;48.312;9.246;2023-09-19T14:52:58;93562.22;;;19.72;50.10
71057;BME280;58380;48.312;9.246;2023-09-19T14:55:26;93546.63;;;19.74;49.35
71057;BME280;58380;48.312;9.246;2023-09-19T14:57:54;93524.72;;;19.63;49.89
71057;BME280;58380;48.312;9.246;2023-09-19T15:00:21;93532.75;;;19.54;49.74
71057;BME280;58380;48.312;9.246;2023-09-19T15:02:48;93517.19;;;19.48;50.18
71057;BME280;58380;48.312;9.246;2023-09-19T15:05:16;93524.72;;;19.54;50.88
71057;BME280;58380;48.312;9.246;2023-09-19T15:07:42;93505.66;;;19.56;51.98
71057;BME280;58380;48.312;9.246;2023-09-19T15:10:10;93492.28;;;19.65;50.07
71057;BME280;58380;48.312;9.246;2023-09-19T15:12:36;93524.44;;;19.82;49.83
71057;BME280;58380;48.312;9.246;2023-09-19T15:15:04;93482.22;;;19.53;50.47
71057;BME280;58380;48.312;9.246;2023-09-19T15:17:54;93454.34;;;19.45;51.04
71057;BME280;58380;48.312;9.246;2023-09-19T15:20:20;93485.53;;;19.67;50.35
71057;BME280;58380;48.312;9.246;2023-09-19T15:22:46;93483.78;;;19.71;50.46
71057;BME280;58380;48.312;9.246;2023-09-19T15:25:11;93481.56;;;19.82;51.23
71057;BME280;58380;48.312;9.246;2023-09-19T15:27:37;93518.19;;;20.16;51.38
71057;BME280;58380;48.312;9.246;2023-09-19T15:30:03;93508.59;;;20.15;50.70
71057;BME280;58380;48.312;9.246;2023-09-19T15:32:30;93548.56;;;20.38;50.47
71057;BME280;58380;48.312;9.246;2023-09-19T15:34:56;93539.84;;;20.50;50.45
71057;BME280;58380;48.312;9.246;2023-09-19T15:37:37;93427.88;;;19.70;50.00
71057;BME280;58380;48.312;9.246;2023-09-19T16:07:38;93537.66;;;19.78;51.90
71057;BME280;58380;48.312;9.246;2023-09-19T16:10:58;93452.50;;;19.02;54.74
71057;BME280;58380;48.312;9.246;2023-09-19T16:13:41;93461.16;;;19.08;53.81
71057;BME280;58380;48.312;9.246;2023-09-19T16:43:24;93483.78;;;17.73;57.46
71057;BME280;58380;48.312;9.246;2023-09-19T16:45:58;93413.78;;;17.22;58.51
71057;BME280;58380;48.312;9.246;2023-09-19T16:48:25;93420.75;;;17.10;58.39
71057;BME280;58380;48.312;9.246;2023-09-19T16:50:55;93479.56;;;17.50;59.44
71057;BME280;58380;48.312;9.246;2023-09-19T16:53:31;93472.53;;;17.31;60.90
71057;BME280;58380;48.312;9.246;2023-09-19T16:58:36;93497.16;;;17.28;61.02
71057;BME280;58380;48.312;9.246;2023-09-19T17:01:02;93483.34;;;17.12;63.71
71057;BME280;58380;48.312;9.246;2023-09-19T17:03:30;93466.75;;;16.93;62.61
71057;BME280;58380;48.312;9.246;2023-09-19T17:06:03;93436.22;;;16.49;66.08
71057;BME280;58380;48.312;9.246;2023-09-19T17:08:39;93472.69;;;16.62;66.26
71057;BME280;58380;48.312;9.246;2023-09-19T17:11:09;93508.91;;;16.77;66.59
71057;BME280;58380;48.312;9.246;2023-09-19T17:13:47;93486.44;;;16.55;65.04
71057;BME280;58380;48.312;9.246;2023-09-19T17:16:22;93475.91;;;16.23;68.97
71057;BME280;58380;48.312;9.246;2023-09-19T17:18:55;93473.81;;;16.06;71.64
71057;BME280;58380;48.312;9.246;2023-09-19T17:21:31;93481.59;;;15.88;73.66
71057;BME280;58380;48.312;9.246;2023-09-19T17:24:01;93480.78;;;15.74;74.67
71057;BME280;58380;48.312;9.246;2023-09-19T17:26:36;93463.34;;;15.35;76.13
71057;BME280;58380;48.312;9.246;2023-09-19T17:32:05;93422.81;;;14.73;78.89
71057;BME280;58380;48.312;9.246;2023-09-19T17:34:37;93420.19;;;14.49;79.83
71057;BME280;58380;48.312;9.246;2023-09-19T17:37:50;93480.25;;;14.69;80.52
71057;BME280;58380;48.312;9.246;2023-09-19T17:40:27;93569.84;;;15.06;81.25
71057;BME280;58380;48.312;9.246;2023-09-19T17:43:25;93483.81;;;14.35;81.66
71057;BME280;58380;48.312;9.246;2023-09-19T17:46:19;93514.72;;;14.50;81.77
71057;BME280;58380;48.312;9.246;2023-09-19T17:49:34;93456.19;;;13.93;82.08
71057;BME280;58380;48.312;9.246;2023-09-19T17:52:09;93503.69;;;14.18;83.74
71057;BME280;58380;48.312;9.246;2023-09-19T17:54:57;93575.00;;;14.54;85.18
71057;BME280;58380;48.312;9.246;2023-09-19T17:57:37;93589.16;;;14.44;85.00
71057;BME280;58380;48.312;9.246;2023-09-19T18:00:13;93500.66;;;13.77;85.63
71057;BME280;58380;48.312;9.246;2023-09-19T18:02:43;93525.56;;;13.81;87.02
71057;BME280;58380;48.312;9.246;2023-09-19T18:05:09;93458.97;;;13.19;88.34
71057;BME280;58380;48.312;9.246;2023-09-19T18:10:37;93467.88;;;12.99;88.75
71057;BME280;58380;48.312;9.246;2023-09-19T18:13:05;93545.75;;;13.43;88.71
71057;BME280;58380;48.312;9.246;2023-09-19T18:15:48;93493.81;;;13.02;90.12
71057;BME280;58380;48.312;9.246;2023-09-19T18:18:25;93523.41;;;13.14;90.77
71057;BME280;58380;48.312;9.246;2023-09-19T18:20:53;93448.03;;;12.52;91.19
71057;BME280;58380;48.312;9.246;2023-09-19T18:23:19;93498.56;;;12.66;91.80
71057;BME280;58380;48.312;9.246;2023-09-19T18:25:45;93471.88;;;12.52;91.21
71057;BME280;58380;48.312;9.246;2023-09-19T18:28:13;93558.16;;;13.08;91.38
71057;BME280;58380;48.312;9.246;2023-09-19T18:30:39;93550.00;;;12.99;91.46
71057;BME280;58380;48.312;9.246;2023-09-19T18:33:04;93552.22;;;12.82;92.36
71057;BME280;58380;48.312;9.246;2023-09-19T18:35:33;93526.66;;;12.57;93.23
71057;BME280;58380;48.312;9.246;2023-09-19T18:37:59;93487.97;;;12.01;93.81
71057;BME280;58380;48.312;9.246;2023-09-19T18:40:27;93591.72;;;12.68;94.42
71057;BME280;58380;48.312;9.246;2023-09-19T18:42:55;93545.03;;;12.22;95.07
71057;BME280;58380;48.312;9.246;2023-09-19T18:45:20;93617.97;;;12.69;95.32
71057;BME280;58380;48.312;9.246;2023-09-19T18:47:49;93625.91;;;12.69;95.38
71057;BME280;58380;48.312;9.246;2023-09-19T18:50:15;93563.84;;;12.21;96.47
71057;BME280;58380;48.312;9.246;2023-09-19T18:52:41;93561.75;;;12.07;96.69
71057;BME280;58380;48.312;9.246;2023-09-19T18:55:10;93486.19;;;11.45;97.05
71057;BME280;58380;48.312;9.246;2023-09-19T18:57:41;93612.56;;;12.09;98.11
71057;BME280;58380;48.312;9.246;2023-09-19T19:00:07;93556.75;;;11.75;98.41
71057;BME280;58380;48.312;9.246;2023-09-19T19:02:47;93521.09;;;11.42;99.20
71057;BME280;58380;48.312;9.246;2023-09-19T19:05:13;93547.81;;;11.51;99.78
71057;BME280;58380;48.312;9.246;2023-09-19T19:07:41;93619.97;;;11.87;99.57
71057;BME280;58380;48.312;9.246;2023-09-19T19:10:09;93657.53;;;12.04;99.95
71057;BME280;58380;48.312;9.246;2023-09-19T19:12:38;93563.63;;;11.45;99.67
71057;BME280;58380;48.312;9.246;2023-09-19T19:15:06;93619.72;;;11.89;100.00
71057;BME280;58380;48.312;9.246;2023-09-19T19:17:35;93640.59;;;11.90;100.00
71057;BME280;58380;48.312;9.246;2023-09-19T19:20:04;93604.34;;;11.70;100.00
71057;BME280;58380;48.312;9.246;2023-09-19T19:22:34;93646.72;;;11.96;100.00
71057;BME280;58380;48.312;9.246;2023-09-19T19:25:02;93645.34;;;11.83;100.00
71057;BME280;58380;48.312;9.246;2023-09-19T19:27:29;93618.09;;;11.52;100.00
71057;BME280;58380;48.312;9.246;2023-09-19T19:29:59;93566.00;;;11.01;100.00
71057;BME280;58380;48.312;9.246;2023-09-19T19:32:24;93614.66;;;11.31;100.00
71057;BME280;58380;48.312;9.246;2023-09-19T19:34:52;93663.03;;;11.57;100.00
71057;BME280;58380;48.312;9.246;2023-09-19T19:37:20;93585.53;;;11.10;100.00
71057;BME280;58380;48.312;9.246;2023-09-19T19:39:48;93590.03;;;11.10;100.00
71057;BME280;58380;48.312;9.246;2023-09-19T19:42:14;93617.28;;;11.31;100.00
71057;BME280;58380;48.312;9.246;2023-09-19T19:44:39;93609.31;;;11.15;100.00
71057;BME280;58380;48.312;9.246;2023-09-19T19:47:05;93568.31;;;10.87;100.00
71057;BME280;58380;48.312;9.246;2023-09-19T19:49:30;93650.06;;;11.45;100.00
71057;BME280;58380;48.312;9.246;2023-09-19T19:51:59;93517.78;;;10.48;100.00
71057;BME280;58380;48.312;9.246;2023-09-19T19:54:25;93604.50;;;10.87;100.00
71057;BME280;58380;48.312;9.246;2023-09-19T19:56:50;93607.16;;;10.92;100.00
71057;BME280;58380;48.312;9.246;2023-09-19T19:59:16;93641.84;;;11.16;100.00
71057;BME280;58380;48.312;9.246;2023-09-19T20:01:43;93616.94;;;10.96;100.00
71057;BME280;58380;48.312;9.246;2023-09-19T20:04:08;93646.59;;;11.19;100.00
71057;BME280;58380;48.312;9.246;2023-09-19T20:06:38;93587.56;;;10.72;100.00
71057;BME280;58380;48.312;9.246;2023-09-19T20:09:07;93685.69;;;11.22;100.00
71057;BME280;58380;48.312;9.246;2023-09-19T20:11:37;93607.13;;;10.82;100.00
71057;BME280;58380;48.312;9.246;2023-09-19T20:14:03;93689.41;;;11.21;100.00
71057;BME280;58380;48.312;9.246;2023-09-19T20:16:33;93606.56;;;10.69;100.00
71057;BME280;58380;48.312;9.246;2023-09-19T20:19:02;93576.13;;;10.46;100.00
71057;BME280;58380;48.312;9.246;2023-09-19T20:21:30;93620.53;;;10.70;100.00
71057;BME280;58380;48.312;9.246;2023-09-19T20:23:56;93634.28;;;10.72;100.00
71057;BME280;58380;48.312;9.246;2023-09-19T20:26:29;93656.03;;;10.94;100.00
71057;BME280;58380;48.312;9.246;2023-09-19T20:28:57;93593.88;;;10.61;100.00
71057;BME280;58380;48.312;9.246;2023-09-19T20:31:25;93584.84;;;10.52;100.00
